Time;durP1;ratioP1;P1;durP2;ratioP2;P2;SDS_P1;SDS_P2;PMS_P1;PMS_P2;Temp;Humidity;BMP_temperature;BMP_pressure;BME280_temperature;BME280_humidity;BME280_pressure;Samples;Min_cycle;Max_cycle;Signal;HPM_P1;HPM_P2
2023/01/04 00:01:48;;;;;;;6.93;2.57;;;;;;;;;;4961278;28;20289;-81
2023/01/04 00:04:14;;;;;;;8.43;2.50;;;;;;;;;;4958040;28;20233;-81
2023/01/04 00:06:40;;;;;;;5.67;2.50;;;;;;;;;;4964177;28;20201;-81
2023/01/04 00:09:06;;;;;;;6.47;2.87;;;;;;;;;;4965158;28;20199;-81
2023/01/04 00:11:32;;;;;;;7.23;2.97;;;;;;;;;;4975645;28;20253;-81
2023/01/04 00:13:59;;;;;;;8.20;2.97;;;;;;;;;;4961839;28;20186;-80
2023/01/04 00:16:25;;;;;;;6.27;2.70;;;;;;;;;;4977907;28;20178;-81
2023/01/04 00:18:52;;;;;;;7.50;2.73;;;;;;;;;;4958187;28;20194;-81
2023/01/04 00:21:20;;;;;;;6.90;3.00;;;;;;;;;;4963991;28;20251;-80
2023/01/04 00:23:47;;;;;;;8.03;2.90;;;;;;;;;;4975069;28;20279;-80
2023/01/04 00:26:18;;;;;;;7.47;3.20;;;;;;;;;;4974628;28;20245;-80
2023/01/04 00:28:44;;;;;;;8.43;2.50;;;;;;;;;;4974513;28;20182;-80
2023/01/04 00:31:11;;;;;;;9.30;3.27;;;;;;;;;;4973666;28;20237;-79
2023/01/04 00:33:37;;;;;;;5.87;2.37;;;;;;;;;;4977723;28;20181;-79
2023/01/04 00:36:04;;;;;;;7.57;2.90;;;;;;;;;;4977545;28;20185;-83
2023/01/04 00:38:31;;;;;;;9.40;3.43;;;;;;;;;;4977615;28;20189;-84
2023/01/04 00:40:57;;;;;;;9.60;2.90;;;;;;;;;;4977467;28;20189;-84
2023/01/04 00:43:23;;;;;;;7.83;2.90;;;;;;;;;;4994658;28;20184;-84
2023/01/04 00:45:49;;;;;;;9.07;2.93;;;;;;;;;;4961661;28;20225;-84
2023/01/04 00:48:15;;;;;;;8.13;2.90;;;;;;;;;;4961288;28;20217;-84
2023/01/04 00:50:43;;;;;;;6.33;2.70;;;;;;;;;;4977756;28;20202;-84
2023/01/04 00:53:09;;;;;;;9.57;3.50;;;;;;;;;;4977491;28;20185;-87
2023/01/04 00:55:35;;;;;;;9.53;3.20;;;;;;;;;;4977516;28;20237;-87
2023/01/04 00:58:01;;;;;;;11.37;3.20;;;;;;;;;;4977701;28;20174;-87
2023/01/04 01:00:27;;;;;;;9.33;3.07;;;;;;;;;;4961218;28;20178;-86
2023/01/04 01:02:53;;;;;;;10.40;3.27;;;;;;;;;;4961328;28;20190;-86
2023/01/04 01:05:19;;;;;;;9.20;3.40;;;;;;;;;;4977316;28;20238;-86
2023/01/04 01:07:45;;;;;;;9.60;3.50;;;;;;;;;;4977244;28;20178;-87
2023/01/04 01:10:11;;;;;;;9.60;3.33;;;;;;;;;;4963512;28;20178;-80
2023/01/04 01:12:37;;;;;;;7.63;3.70;;;;;;;;;;4972487;28;20218;-80
2023/01/04 01:15:03;;;;;;;8.13;3.30;;;;;;;;;;4964461;28;20193;-80
2023/01/04 01:17:29;;;;;;;8.50;3.20;;;;;;;;;;4958287;28;20194;-80
2023/01/04 01:19:55;;;;;;;7.70;3.13;;;;;;;;;;4968253;28;20187;-81
2023/01/04 01:22:21;;;;;;;8.17;3.40;;;;;;;;;;4974261;28;20236;-80
2023/01/04 01:24:47;;;;;;;7.90;3.00;;;;;;;;;;4962409;28;20190;-80
2023/01/04 01:27:13;;;;;;;8.70;3.00;;;;;;;;;;4978245;28;20317;-86
2023/01/04 01:29:39;;;;;;;6.10;2.73;;;;;;;;;;4961243;28;20250;-86
2023/01/04 01:32:05;;;;;;;7.23;2.93;;;;;;;;;;4945963;28;20215;-87
2023/01/04 01:34:31;;;;;;;9.17;3.23;;;;;;;;;;4961299;28;20178;-86
2023/01/04 01:36:57;;;;;;;6.60;3.27;;;;;;;;;;4945724;28;20191;-86
2023/01/04 01:39:23;;;;;;;7.50;3.37;;;;;;;;;;4945231;28;20187;-87
2023/01/04 01:41:49;;;;;;;10.83;3.20;;;;;;;;;;4961114;28;20183;-86
2023/01/04 01:44:34;;;;;;;9.00;3.10;;;;;;;;;;4956404;28;20178;-86
2023/01/04 01:47:00;;;;;;;6.53;3.20;;;;;;;;;;4963494;28;20186;-86
2023/01/04 01:49:37;;;;;;;6.40;3.40;;;;;;;;;;4960765;28;20190;-88
2023/01/04 01:52:04;;;;;;;5.23;2.87;;;;;;;;;;4960703;28;20227;-87
2023/01/04 01:54:33;;;;;;;7.13;3.23;;;;;;;;;;4960659;28;20175;-87
2023/01/04 01:57:01;;;;;;;9.53;2.93;;;;;;;;;;4978433;28;20182;-88
2023/01/04 01:59:28;;;;;;;6.43;2.80;;;;;;;;;;4993392;28;20179;-82
2023/01/04 02:01:54;;;;;;;4.50;2.63;;;;;;;;;;4992875;28;20266;-81
2023/01/04 02:04:20;;;;;;;7.53;3.20;;;;;;;;;;4991363;28;20257;-82
2023/01/04 02:06:49;;;;;;;6.37;3.10;;;;;;;;;;4960284;28;20245;-82
2023/01/04 02:09:16;;;;;;;6.87;3.10;;;;;;;;;;4991427;28;20189;-82
2023/01/04 02:11:42;;;;;;;4.97;2.47;;;;;;;;;;4979283;28;20221;-82
2023/01/04 02:14:27;;;;;;;7.40;2.70;;;;;;;;;;4973920;28;20191;-81
2023/01/04 02:16:55;;;;;;;5.63;2.70;;;;;;;;;;4971967;28;20185;-85
2023/01/04 02:19:24;;;;;;;6.83;2.77;;;;;;;;;;4996752;28;20182;-84
2023/01/04 02:22:08;;;;;;;3.73;2.60;;;;;;;;;;4963389;28;20259;-85
2023/01/04 02:25:03;;;;;;;5.17;2.70;;;;;;;;;;4970100;28;20216;-85
2023/01/04 02:27:32;;;;;;;4.70;2.80;;;;;;;;;;4969667;28;20198;-84
2023/01/04 02:30:04;;;;;;;4.20;2.90;;;;;;;;;;4989417;28;20414;-84
2023/01/04 02:32:30;;;;;;;3.83;2.67;;;;;;;;;;4967354;28;20206;-82
2023/01/04 02:35:08;;;;;;;7.23;2.80;;;;;;;;;;4979024;28;20233;-82
2023/01/04 02:37:51;;;;;;;4.20;2.63;;;;;;;;;;4986108;28;20190;-81
2023/01/04 02:40:27;;;;;;;4.83;2.93;;;;;;;;;;4961999;28;20202;-81
2023/01/04 02:45:55;;;;;;;3.53;2.57;;;;;;;;;;4980491;28;20248;-81
2023/01/04 02:51:24;;;;;;;4.80;2.70;;;;;;;;;;4979769;28;20285;-85
2023/01/04 02:53:50;;;;;;;4.33;2.43;;;;;;;;;;4977994;28;20182;-85
2023/01/04 02:56:34;;;;;;;5.33;2.57;;;;;;;;;;4947348;28;20190;-84
2023/01/04 02:59:03;;;;;;;3.30;2.80;;;;;;;;;;4976378;28;20193;-85
2023/01/04 03:07:10;;;;;;;3.17;2.70;;;;;;;;;;4976744;28;20194;-80
2023/01/04 03:09:39;;;;;;;4.13;2.47;;;;;;;;;;4991836;28;20183;-80
2023/01/04 03:14:59;;;;;;;3.80;2.53;;;;;;;;;;4976312;28;20189;-80
2023/01/04 03:17:26;;;;;;;2.93;2.40;;;;;;;;;;4991100;28;20234;-81
2023/01/04 03:19:53;;;;;;;3.70;2.20;;;;;;;;;;4992395;28;20175;-80
2023/01/04 03:36:19;;;;;;;6.50;2.70;;;;;;;;;;4976023;28;20240;-80
2023/01/04 03:50:24;;;;;;;4.00;2.63;;;;;;;;;;4969950;28;20197;-80
2023/01/04 03:52:51;;;;;;;3.13;2.50;;;;;;;;;;4978303;28;20189;-80
2023/01/04 03:55:17;;;;;;;3.03;2.50;;;;;;;;;;4977737;28;20188;-80
2023/01/04 03:57:44;;;;;;;3.23;2.57;;;;;;;;;;4974561;28;20195;-86
2023/01/04 04:00:11;;;;;;;6.03;2.47;;;;;;;;;;4959048;28;20186;-87
2023/01/04 04:02:39;;;;;;;4.83;2.63;;;;;;;;;;4958535;28;20182;-87
2023/01/04 04:10:34;;;;;;;2.70;2.30;;;;;;;;;;4961317;28;20213;-87
2023/01/04 04:13:00;;;;;;;2.60;2.40;;;;;;;;;;4943082;28;20183;-85
2023/01/04 04:15:26;;;;;;;4.03;2.30;;;;;;;;;;4975545;28;20175;-85
2023/01/04 04:17:52;;;;;;;3.50;2.60;;;;;;;;;;4958383;28;20205;-85
2023/01/04 04:20:18;;;;;;;3.10;2.80;;;;;;;;;;4942505;28;20229;-85
2023/01/04 04:22:44;;;;;;;6.57;3.00;;;;;;;;;;4943451;28;20186;-84
2023/01/04 04:25:10;;;;;;;3.10;2.70;;;;;;;;;;4965724;28;20187;-84
2023/01/04 04:27:36;;;;;;;4.17;2.77;;;;;;;;;;4953992;28;20206;-84
2023/01/04 04:30:05;;;;;;;3.03;2.77;;;;;;;;;;4958618;28;20188;-85
2023/01/04 04:32:31;;;;;;;3.43;2.97;;;;;;;;;;4956531;28;20222;-85
2023/01/04 04:34:57;;;;;;;3.10;2.80;;;;;;;;;;4958624;28;20179;-85
2023/01/04 04:37:24;;;;;;;3.97;3.17;;;;;;;;;;4944094;28;20186;-85
2023/01/04 04:39:52;;;;;;;3.57;3.27;;;;;;;;;;4972503;28;20183;-85
2023/01/04 04:42:18;;;;;;;4.57;3.00;;;;;;;;;;4967817;28;20188;-85
2023/01/04 04:44:44;;;;;;;3.70;3.17;;;;;;;;;;4964369;28;20267;-85
2023/01/04 04:47:13;;;;;;;3.73;3.00;;;;;;;;;;4965395;28;20218;-80
2023/01/04 04:49:39;;;;;;;3.50;3.07;;;;;;;;;;4946396;28;20221;-81
2023/01/04 04:52:05;;;;;;;3.33;3.03;;;;;;;;;;4961670;28;20210;-82
2023/01/04 04:54:34;;;;;;;4.40;2.90;;;;;;;;;;4954000;28;20205;-81
2023/01/04 04:57:00;;;;;;;4.07;3.67;;;;;;;;;;4981485;28;20261;-81
2023/01/04 04:59:26;;;;;;;6.33;3.40;;;;;;;;;;4965561;28;20182;-80
2023/01/04 05:01:52;;;;;;;4.53;3.33;;;;;;;;;;4961657;28;20198;-81
2023/01/04 05:04:18;;;;;;;3.97;3.30;;;;;;;;;;4961709;28;20234;-82
2023/01/04 05:06:48;;;;;;;4.73;3.20;;;;;;;;;;4961516;28;20194;-82
2023/01/04 05:09:14;;;;;;;6.77;3.40;;;;;;;;;;4964214;28;20186;-82
2023/01/04 05:14:26;;;;;;;3.67;3.13;;;;;;;;;;4955191;28;20194;-84
2023/01/04 05:16:52;;;;;;;4.67;3.57;;;;;;;;;;4954430;28;20174;-84
2023/01/04 05:19:18;;;;;;;5.47;4.10;;;;;;;;;;4966135;28;20238;-84
2023/01/04 05:21:44;;;;;;;4.30;3.87;;;;;;;;;;4952902;28;20178;-84
2023/01/04 05:24:11;;;;;;;6.47;4.13;;;;;;;;;;4949875;28;20189;-84
2023/01/04 05:26:37;;;;;;;4.30;3.90;;;;;;;;;;4957842;28;20205;-84
2023/01/04 05:29:03;;;;;;;4.67;3.97;;;;;;;;;;4978181;28;20229;-84
2023/01/04 05:31:29;;;;;;;4.77;4.17;;;;;;;;;;4943806;28;20301;-84
2023/01/04 05:33:55;;;;;;;4.37;3.97;;;;;;;;;;4950429;28;20190;-83
2023/01/04 05:36:21;;;;;;;6.78;4.45;;;;;;;;;;4968177;28;20413;-81
2023/01/04 05:38:47;;;;;;;7.32;5.30;;;;;;;;;;4979833;28;20467;-81
2023/01/04 05:43:57;;;;;;;4.80;4.30;;;;;;;;;;4963307;28;20205;-81
2023/01/04 05:46:23;;;;;;;6.50;4.47;;;;;;;;;;4936781;28;20182;-81
2023/01/04 05:48:49;;;;;;;8.17;4.70;;;;;;;;;;4966461;28;20246;-84
2023/01/04 05:51:15;;;;;;;6.67;4.30;;;;;;;;;;4931282;28;20211;-84
2023/01/04 05:53:41;;;;;;;5.30;4.57;;;;;;;;;;4947870;28;20241;-88
2023/01/04 05:56:07;;;;;;;5.63;4.60;;;;;;;;;;4964632;28;20190;-89
2023/01/04 05:58:33;;;;;;;5.87;4.83;;;;;;;;;;4929056;28;20190;-89
2023/01/04 06:00:59;;;;;;;5.57;4.93;;;;;;;;;;4935385;28;20197;-88
2023/01/04 06:03:25;;;;;;;6.47;4.67;;;;;;;;;;4939019;28;20203;-90
2023/01/04 06:05:52;;;;;;;5.47;4.97;;;;;;;;;;4944912;28;20194;-89
2023/01/04 06:08:18;;;;;;;5.83;5.03;;;;;;;;;;4978383;28;20245;-90
2023/01/04 06:10:44;;;;;;;7.17;4.83;;;;;;;;;;4945233;28;20195;-81
2023/01/04 06:13:10;;;;;;;6.03;4.67;;;;;;;;;;4944358;28;20311;-81
2023/01/04 06:15:36;;;;;;;8.13;5.55;;;;;;;;;;4936147;28;20444;-80
2023/01/04 06:18:02;;;;;;;9.37;5.40;;;;;;;;;;4960321;28;20175;-80
2023/01/04 06:20:28;;;;;;;5.40;4.47;;;;;;;;;;4976970;28;20179;-80
2023/01/04 06:22:54;;;;;;;4.90;4.40;;;;;;;;;;4943814;28;20190;-81
2023/01/04 06:25:20;;;;;;;7.73;4.20;;;;;;;;;;4943940;28;20277;-81
2023/01/04 06:27:46;;;;;;;5.83;4.90;;;;;;;;;;4944011;28;20237;-89
2023/01/04 06:30:12;;;;;;;7.60;4.50;;;;;;;;;;4944007;28;20191;-88
2023/01/04 06:32:38;;;;;;;6.73;4.53;;;;;;;;;;4943905;28;20218;-89
2023/01/04 06:35:05;;;;;;;8.20;4.77;;;;;;;;;;4943808;28;20193;-90
2023/01/04 06:37:31;;;;;;;5.67;4.87;;;;;;;;;;4959890;28;20261;-89
2023/01/04 06:39:57;;;;;;;4.73;4.20;;;;;;;;;;4943594;28;20194;-89
2023/01/04 06:45:07;;;;;;;6.00;4.30;;;;;;;;;;4962435;28;20201;-81
2023/01/04 06:47:33;;;;;;;5.80;4.40;;;;;;;;;;4943744;28;20186;-81
2023/01/04 06:49:59;;;;;;;5.27;4.33;;;;;;;;;;4943507;28;20337;-81
2023/01/04 06:52:25;;;;;;;9.43;4.40;;;;;;;;;;4959257;28;20300;-80
2023/01/04 06:54:51;;;;;;;5.10;4.60;;;;;;;;;;4959382;28;20182;-81
2023/01/04 06:57:17;;;;;;;4.60;4.10;;;;;;;;;;4943688;28;20182;-82
2023/01/04 06:59:43;;;;;;;5.17;4.17;;;;;;;;;;4939198;28;20199;-81
2023/01/04 07:02:13;;;;;;;7.80;4.40;;;;;;;;;;4944465;28;20191;-81
2023/01/04 07:04:39;;;;;;;7.53;4.70;;;;;;;;;;4974921;28;20174;-81
2023/01/04 07:07:05;;;;;;;5.07;4.20;;;;;;;;;;4961988;28;20186;-81
2023/01/04 07:09:31;;;;;;;4.93;4.20;;;;;;;;;;4977031;28;20190;-81
2023/01/04 07:11:58;;;;;;;6.70;4.00;;;;;;;;;;4959953;28;20234;-81
2023/01/04 07:14:24;;;;;;;5.90;4.10;;;;;;;;;;4949076;28;20273;-81
2023/01/04 07:16:50;;;;;;;5.47;3.70;;;;;;;;;;4974861;28;20217;-83
2023/01/04 07:19:16;;;;;;;4.97;3.40;;;;;;;;;;4981291;28;20205;-83
2023/01/04 07:21:42;;;;;;;5.37;3.80;;;;;;;;;;4968794;28;20194;-84
2023/01/04 07:24:08;;;;;;;5.30;3.37;;;;;;;;;;4955150;28;20186;-84
2023/01/04 07:26:34;;;;;;;4.83;3.60;;;;;;;;;;4946157;28;20250;-84
2023/01/04 07:29:18;;;;;;;4.60;3.10;;;;;;;;;;4974563;28;20205;-84
2023/01/04 07:31:49;;;;;;;6.30;3.20;;;;;;;;;;4967749;28;20252;-84
2023/01/04 07:34:16;;;;;;;5.30;3.13;;;;;;;;;;4981641;28;20174;-89
2023/01/04 07:36:42;;;;;;;6.43;2.90;;;;;;;;;;4975117;28;20182;-88
2023/01/04 07:39:11;;;;;;;3.40;2.70;;;;;;;;;;4947157;28;20193;-89
2023/01/04 07:41:51;;;;;;;5.90;3.17;;;;;;;;;;4969443;28;20198;-89
2023/01/04 07:44:18;;;;;;;4.10;2.90;;;;;;;;;;4958777;28;20202;-89
2023/01/04 07:46:57;;;;;;;4.97;2.90;;;;;;;;;;4974718;28;20182;-88
2023/01/04 07:49:48;;;;;;;4.47;3.13;;;;;;;;;;4966888;28;20189;-89
2023/01/04 07:52:15;;;;;;;5.97;3.20;;;;;;;;;;4963930;28;20488;-90
2023/01/04 07:54:41;;;;;;;4.87;2.73;;;;;;;;;;4958515;28;20205;-89
2023/01/04 07:57:07;;;;;;;4.20;2.93;;;;;;;;;;4943907;28;20187;-89
2023/01/04 07:59:33;;;;;;;4.40;3.30;;;;;;;;;;4968877;28;20187;-89
2023/01/04 08:01:59;;;;;;;6.73;3.50;;;;;;;;;;4990298;28;20290;-89
2023/01/04 08:04:25;;;;;;;4.63;3.07;;;;;;;;;;4950033;28;20196;-89
2023/01/04 08:06:51;;;;;;;5.97;3.40;;;;;;;;;;4947131;29;20198;-81
2023/01/04 08:09:18;;;;;;;4.33;3.30;;;;;;;;;;4968423;28;20182;-81
2023/01/04 08:11:44;;;;;;;5.87;3.57;;;;;;;;;;4941723;28;20227;-81
2023/01/04 08:14:11;;;;;;;7.20;3.50;;;;;;;;;;4951891;29;20171;-81
2023/01/04 08:16:38;;;;;;;7.83;4.00;;;;;;;;;;4932168;28;20187;-81
2023/01/04 08:19:05;;;;;;;8.70;3.80;;;;;;;;;;4961638;28;20190;-80
2023/01/04 08:21:33;;;;;;;6.83;4.10;;;;;;;;;;4954733;28;20233;-81
2023/01/04 08:23:59;;;;;;;7.60;4.50;;;;;;;;;;4942981;28;20183;-84
2023/01/04 08:26:26;;;;;;;8.93;4.20;;;;;;;;;;4950163;29;20191;-84
2023/01/04 08:28:52;;;;;;;8.43;4.50;;;;;;;;;;4965727;28;20269;-84
2023/01/04 08:31:22;;;;;;;6.13;4.40;;;;;;;;;;4959959;28;20289;-84
2023/01/04 08:33:49;;;;;;;6.27;4.20;;;;;;;;;;4971351;28;20175;-84
2023/01/04 08:36:20;;;;;;;6.37;4.20;;;;;;;;;;4938366;29;20179;-84
2023/01/04 08:38:47;;;;;;;9.43;4.03;;;;;;;;;;4938524;29;20179;-84
2023/01/04 08:41:14;;;;;;;8.27;4.30;;;;;;;;;;4938597;29;20215;-84
2023/01/04 08:43:40;;;;;;;5.30;3.87;;;;;;;;;;4922920;29;20195;-84
2023/01/04 08:46:07;;;;;;;6.30;3.80;;;;;;;;;;4955679;28;20194;-84
2023/01/04 08:48:33;;;;;;;7.17;4.47;;;;;;;;;;4938806;29;20187;-84
2023/01/04 08:51:00;;;;;;;6.57;3.93;;;;;;;;;;4922628;29;20279;-84
2023/01/04 08:53:26;;;;;;;8.17;4.20;;;;;;;;;;4938620;29;20282;-84
2023/01/04 08:55:53;;;;;;;8.60;4.60;;;;;;;;;;4923073;29;20190;-82
2023/01/04 08:58:20;;;;;;;8.80;4.17;;;;;;;;;;4938584;29;20187;-81
2023/01/04 09:00:46;;;;;;;11.03;4.63;;;;;;;;;;4955694;28;20266;-84
2023/01/04 09:03:12;;;;;;;10.13;4.33;;;;;;;;;;4938629;29;20226;-84
2023/01/04 09:05:38;;;;;;;10.37;4.77;;;;;;;;;;4933359;29;20271;-84
2023/01/04 09:08:04;;;;;;;8.07;4.03;;;;;;;;;;4935348;29;20176;-84
2023/01/04 09:10:31;;;;;;;5.80;4.10;;;;;;;;;;4935406;29;20211;-84
2023/01/04 09:12:57;;;;;;;7.47;4.30;;;;;;;;;;4935098;29;20254;-83
2023/01/04 09:15:23;;;;;;;8.00;4.17;;;;;;;;;;4935101;29;20176;-84
2023/01/04 09:17:49;;;;;;;6.30;4.20;;;;;;;;;;4935244;29;20180;-84
2023/01/04 09:20:15;;;;;;;7.20;4.00;;;;;;;;;;4935084;29;20212;-83
2023/01/04 09:22:41;;;;;;;6.83;4.00;;;;;;;;;;4936103;29;20196;-90
2023/01/04 09:25:08;;;;;;;8.63;4.30;;;;;;;;;;4935141;29;20252;-89
2023/01/04 09:27:34;;;;;;;9.43;4.50;;;;;;;;;;4935194;29;20247;-83
2023/01/04 09:30:00;;;;;;;8.87;4.37;;;;;;;;;;4935061;29;20192;-89
2023/01/04 09:32:26;;;;;;;11.47;4.80;;;;;;;;;;4939574;29;20267;-84
2023/01/04 09:34:54;;;;;;;8.63;4.70;;;;;;;;;;4938566;29;20191;-84
2023/01/04 09:37:20;;;;;;;8.50;4.40;;;;;;;;;;4938752;29;20172;-83
2023/01/04 09:39:46;;;;;;;11.10;4.80;;;;;;;;;;4940505;29;20214;-83
2023/01/04 09:42:30;;;;;;;8.87;5.53;;;;;;;;;;4941508;29;20184;-84
2023/01/04 09:45:00;;;;;;;14.60;5.80;;;;;;;;;;4941548;29;20195;-84
2023/01/04 09:47:28;;;;;;;10.83;5.43;;;;;;;;;;4941451;29;20183;-85
2023/01/04 09:49:59;;;;;;;10.57;5.40;;;;;;;;;;4941352;29;20179;-84
2023/01/04 09:52:40;;;;;;;10.33;5.93;;;;;;;;;;4941373;29;20261;-84
2023/01/04 09:55:15;;;;;;;11.03;6.37;;;;;;;;;;4941394;29;20195;-84
2023/01/04 09:57:46;;;;;;;9.80;6.40;;;;;;;;;;4941213;29;20183;-84
2023/01/04 10:00:12;;;;;;;13.37;7.13;;;;;;;;;;4941462;29;20190;-84
2023/01/04 10:02:40;;;;;;;12.03;6.73;;;;;;;;;;4941178;29;20187;-83
2023/01/04 10:05:06;;;;;;;10.83;6.37;;;;;;;;;;4941115;29;20187;-83
2023/01/04 10:07:33;;;;;;;16.03;7.60;;;;;;;;;;4925420;29;20195;-83
2023/01/04 10:09:59;;;;;;;13.33;7.30;;;;;;;;;;4940991;29;20179;-83
2023/01/04 10:12:38;;;;;;;12.30;7.10;;;;;;;;;;4936876;28;20243;-83
2023/01/04 10:15:12;;;;;;;7.87;5.63;;;;;;;;;;4960332;28;20181;-83
2023/01/04 10:17:47;;;;;;;8.37;5.33;;;;;;;;;;4959988;28;20179;-83
2023/01/04 10:20:13;;;;;;;8.50;5.13;;;;;;;;;;4977247;28;20189;-80
2023/01/04 10:22:38;;;;;;;9.77;5.30;;;;;;;;;;4959871;28;20270;-80
2023/01/04 10:25:20;;;;;;;7.60;4.53;;;;;;;;;;4959707;28;20281;-84
2023/01/04 10:28:04;;;;;;;9.17;4.90;;;;;;;;;;4959751;28;20187;-84
2023/01/04 10:30:34;;;;;;;8.43;4.40;;;;;;;;;;4959700;28;20329;-84
2023/01/04 10:33:13;;;;;;;6.63;4.60;;;;;;;;;;4959708;28;20211;-84
2023/01/04 10:35:42;;;;;;;8.33;4.87;;;;;;;;;;4959852;28;20178;-84
2023/01/04 10:38:17;;;;;;;9.37;4.67;;;;;;;;;;4976913;28;20175;-83
2023/01/04 10:40:45;;;;;;;7.13;4.50;;;;;;;;;;4959776;28;20210;-83
2023/01/04 10:43:15;;;;;;;5.83;4.37;;;;;;;;;;4959225;28;20187;-84
2023/01/04 10:46:01;;;;;;;7.37;4.30;;;;;;;;;;4976584;28;20258;-83
2023/01/04 10:48:33;;;;;;;5.83;4.43;;;;;;;;;;4959547;28;20184;-83
2023/01/04 10:51:00;;;;;;;7.33;4.07;;;;;;;;;;4959745;28;20214;-84
2023/01/04 10:53:30;;;;;;;7.50;4.30;;;;;;;;;;4960399;28;20170;-91
2023/01/04 10:55:59;;;;;;;7.03;4.57;;;;;;;;;;4959534;28;20174;-90
2023/01/04 10:58:36;;;;;;;8.50;4.40;;;;;;;;;;4959488;28;20189;-91
2023/01/04 11:01:06;;;;;;;5.70;4.10;;;;;;;;;;4957538;28;20190;-89
2023/01/04 11:03:41;;;;;;;6.17;4.77;;;;;;;;;;4959427;28;20186;-90
2023/01/04 11:06:16;;;;;;;7.60;4.80;;;;;;;;;;4959418;28;20241;-90
2023/01/04 11:08:49;;;;;;;5.87;4.50;;;;;;;;;;4976082;28;20174;-91
2023/01/04 11:11:17;;;;;;;6.90;4.60;;;;;;;;;;4958997;28;20215;-80
2023/01/04 11:13:43;;;;;;;6.57;4.60;;;;;;;;;;4958918;28;20187;-80
2023/01/04 11:16:10;;;;;;;7.13;4.40;;;;;;;;;;4943193;28;20277;-80
2023/01/04 11:18:37;;;;;;;6.50;3.90;;;;;;;;;;4957245;28;20191;-80
2023/01/04 11:21:05;;;;;;;9.50;4.37;;;;;;;;;;4958695;28;20179;-80
2023/01/04 11:23:31;;;;;;;9.40;4.10;;;;;;;;;;4958815;28;20193;-89
2023/01/04 11:26:05;;;;;;;6.60;4.17;;;;;;;;;;4958969;28;20171;-84
2023/01/04 11:28:37;;;;;;;6.70;4.27;;;;;;;;;;4958795;28;20182;-84
2023/01/04 11:31:03;;;;;;;7.20;4.53;;;;;;;;;;4958677;28;20209;-84
2023/01/04 11:33:30;;;;;;;7.43;4.47;;;;;;;;;;4975788;28;20182;-84
2023/01/04 11:35:58;;;;;;;8.07;4.43;;;;;;;;;;4942658;28;20191;-84
2023/01/04 11:38:27;;;;;;;7.00;4.27;;;;;;;;;;4975646;28;20182;-81
2023/01/04 11:41:16;;;;;;;6.50;4.60;;;;;;;;;;4942842;28;20217;-80
2023/01/04 11:43:55;;;;;;;5.77;4.73;;;;;;;;;;4958025;28;20183;-85
2023/01/04 11:46:23;;;;;;;5.60;4.27;;;;;;;;;;4958556;28;20217;-84
2023/01/04 11:48:49;;;;;;;6.27;4.67;;;;;;;;;;4958556;28;20265;-84
2023/01/04 11:51:17;;;;;;;6.10;4.50;;;;;;;;;;4975543;28;20286;-84
2023/01/04 11:53:43;;;;;;;5.37;4.17;;;;;;;;;;4974945;28;20185;-81
2023/01/04 11:56:15;;;;;;;4.93;4.27;;;;;;;;;;4942348;28;20183;-81
2023/01/04 11:58:42;;;;;;;5.20;4.13;;;;;;;;;;4958274;28;20178;-81
2023/01/04 12:01:22;;;;;;;5.17;4.30;;;;;;;;;;4954266;29;20187;-83
2023/01/04 12:03:48;;;;;;;5.13;3.70;;;;;;;;;;4938995;29;20179;-83
2023/01/04 12:06:17;;;;;;;4.73;3.40;;;;;;;;;;4938809;29;20182;-83
2023/01/04 12:08:43;;;;;;;4.60;3.70;;;;;;;;;;4938898;29;20190;-83
2023/01/04 12:11:16;;;;;;;4.47;3.90;;;;;;;;;;4922820;29;20211;-84
2023/01/04 12:13:42;;;;;;;4.07;3.40;;;;;;;;;;4956019;29;20230;-84
2023/01/04 12:16:25;;;;;;;4.30;2.77;;;;;;;;;;4923959;29;20191;-80
2023/01/04 12:18:51;;;;;;;3.37;3.07;;;;;;;;;;4939010;29;20191;-81
2023/01/04 12:21:20;;;;;;;3.60;3.30;;;;;;;;;;4923322;29;20191;-84
2023/01/04 12:23:46;;;;;;;3.70;3.40;;;;;;;;;;4955741;29;20210;-83
2023/01/04 12:26:13;;;;;;;4.97;3.67;;;;;;;;;;4938901;29;20180;-84
2023/01/04 12:28:41;;;;;;;4.57;3.77;;;;;;;;;;4939096;29;20210;-84
2023/01/04 12:31:19;;;;;;;5.50;3.40;;;;;;;;;;4938626;29;20218;-83
2023/01/04 12:33:50;;;;;;;5.07;3.33;;;;;;;;;;4955889;29;20190;-84
2023/01/04 12:36:17;;;;;;;4.90;3.83;;;;;;;;;;4938673;29;20179;-84
2023/01/04 12:38:58;;;;;;;4.83;3.80;;;;;;;;;;4938636;29;20183;-84
2023/01/04 12:41:59;;;;;;;4.47;4.07;;;;;;;;;;4938791;29;20187;-84
2023/01/04 12:44:45;;;;;;;4.40;4.00;;;;;;;;;;4938324;29;20187;-84
2023/01/04 12:50:07;;;;;;;4.40;4.00;;;;;;;;;;4955876;29;20238;-91
2023/01/04 12:52:33;;;;;;;4.73;3.70;;;;;;;;;;4938546;29;20305;-89
2023/01/04 12:55:00;;;;;;;5.83;3.90;;;;;;;;;;4955630;29;20175;-90
2023/01/04 12:57:33;;;;;;;6.77;3.80;;;;;;;;;;4938487;29;20184;-90
2023/01/04 13:00:00;;;;;;;5.60;3.27;;;;;;;;;;4938857;29;20190;-90
2023/01/04 13:02:30;;;;;;;6.40;3.20;;;;;;;;;;4938781;29;20237;-90
2023/01/04 13:04:58;;;;;;;6.10;3.53;;;;;;;;;;4955606;28;20179;-90
2023/01/04 13:07:28;;;;;;;6.10;3.73;;;;;;;;;;4942237;29;20183;-81
2023/01/04 13:10:02;;;;;;;6.10;2.90;;;;;;;;;;4942248;29;20230;-81
2023/01/04 13:12:42;;;;;;;5.37;2.70;;;;;;;;;;4941704;29;20231;-81
2023/01/04 13:15:16;;;;;;;4.57;2.73;;;;;;;;;;4942242;29;20183;-81
2023/01/04 13:17:43;;;;;;;6.10;3.10;;;;;;;;;;4942044;29;20186;-84
2023/01/04 13:20:14;;;;;;;7.43;2.90;;;;;;;;;;4942112;29;20198;-85
2023/01/04 13:22:44;;;;;;;6.90;2.70;;;;;;;;;;4941998;29;20183;-84
2023/01/04 13:25:12;;;;;;;5.30;2.90;;;;;;;;;;4941787;29;20179;-84
2023/01/04 13:27:53;;;;;;;6.13;2.80;;;;;;;;;;4941828;29;20270;-84
2023/01/04 13:30:29;;;;;;;3.17;2.37;;;;;;;;;;4958827;29;20298;-84
2023/01/04 13:32:55;;;;;;;6.17;2.67;;;;;;;;;;4942011;29;20211;-84
2023/01/04 13:35:21;;;;;;;6.50;3.10;;;;;;;;;;4925881;29;20425;-84
2023/01/04 13:37:49;;;;;;;5.33;2.80;;;;;;;;;;4926041;29;20283;-85
2023/01/04 13:40:23;;;;;;;4.97;3.00;;;;;;;;;;4942114;29;20296;-84
2023/01/04 13:42:58;;;;;;;5.30;3.13;;;;;;;;;;4941472;29;20187;-84
2023/01/04 13:45:43;;;;;;;5.80;3.00;;;;;;;;;;4941452;29;20183;-84
2023/01/04 13:48:11;;;;;;;5.40;3.28;;;;;;;;;;4940266;29;20408;-84
2023/01/04 13:50:47;;;;;;;6.53;4.10;;;;;;;;;;4940409;29;20207;-84
2023/01/04 13:53:21;;;;;;;4.87;2.70;;;;;;;;;;4941242;29;20229;-84
2023/01/04 13:55:52;;;;;;;6.30;3.53;;;;;;;;;;4941297;29;20175;-83
2023/01/04 13:58:27;;;;;;;5.93;3.20;;;;;;;;;;4941315;29;20258;-85
2023/01/04 14:00:53;;;;;;;6.07;3.53;;;;;;;;;;4925490;29;20307;-85
2023/01/04 14:03:38;;;;;;;6.67;3.23;;;;;;;;;;4958094;29;20200;-84
2023/01/04 14:06:11;;;;;;;9.47;3.30;;;;;;;;;;4958260;29;20258;-85
2023/01/04 14:08:37;;;;;;;6.30;3.33;;;;;;;;;;4958296;29;20207;-85
2023/01/04 14:11:10;;;;;;;8.43;3.33;;;;;;;;;;4941145;29;20179;-84
2023/01/04 14:13:36;;;;;;;7.10;3.65;;;;;;;;;;4940375;29;20543;-83
2023/01/04 14:16:10;;;;;;;7.10;3.70;;;;;;;;;;4939612;29;20495;-81
2023/01/04 14:18:36;;;;;;;6.53;3.00;;;;;;;;;;4944111;29;20179;-81
2023/01/04 14:21:02;;;;;;;6.40;2.90;;;;;;;;;;4925424;29;20175;-81
2023/01/04 14:23:37;;;;;;;7.20;2.87;;;;;;;;;;4925216;29;20187;-81
2023/01/04 14:26:04;;;;;;;5.80;2.67;;;;;;;;;;4940647;29;20179;-81
2023/01/04 14:28:37;;;;;;;8.47;2.97;;;;;;;;;;4940937;29;20187;-81
2023/01/04 14:31:05;;;;;;;8.27;2.87;;;;;;;;;;4940733;29;20175;-89
2023/01/04 14:33:43;;;;;;;8.87;2.77;;;;;;;;;;4957752;29;20203;-89
2023/01/04 14:36:09;;;;;;;5.67;2.43;;;;;;;;;;4940678;29;20190;-90
2023/01/04 14:38:36;;;;;;;5.70;2.27;;;;;;;;;;4957566;29;20176;-90
2023/01/04 14:41:26;;;;;;;7.40;2.80;;;;;;;;;;4940440;29;20187;-90
2023/01/04 14:44:01;;;;;;;7.23;2.27;;;;;;;;;;4944422;28;20193;-89
2023/01/04 14:46:28;;;;;;;7.07;2.53;;;;;;;;;;4940466;29;20265;-84
2023/01/04 14:48:54;;;;;;;9.10;2.83;;;;;;;;;;4957424;29;20180;-89
2023/01/04 14:51:22;;;;;;;6.97;2.40;;;;;;;;;;4924425;29;20254;-90
2023/01/04 14:53:49;;;;;;;8.47;2.40;;;;;;;;;;4940867;29;20183;-90
2023/01/04 14:56:16;;;;;;;6.07;2.27;;;;;;;;;;4940530;29;20180;-88
2023/01/04 14:58:42;;;;;;;6.83;2.20;;;;;;;;;;4924471;29;20183;-89
2023/01/04 15:01:10;;;;;;;6.53;2.93;;;;;;;;;;4940297;29;20200;-91
2023/01/04 15:03:36;;;;;;;6.90;2.70;;;;;;;;;;4924632;29;20178;-90
2023/01/04 15:06:02;;;;;;;8.23;3.20;;;;;;;;;;4923891;29;20420;-90
2023/01/04 15:08:28;;;;;;;8.07;2.60;;;;;;;;;;4943498;29;20183;-89
2023/01/04 15:10:54;;;;;;;9.20;3.00;;;;;;;;;;4928926;29;20180;-89
2023/01/04 15:13:20;;;;;;;6.07;3.13;;;;;;;;;;4924272;29;20242;-90
2023/01/04 15:15:46;;;;;;;8.03;2.70;;;;;;;;;;4961330;29;20175;-88
2023/01/04 15:18:12;;;;;;;8.45;2.90;;;;;;;;;;4926268;29;20556;-91
2023/01/04 15:20:39;;;;;;;6.63;2.83;;;;;;;;;;4940194;29;20193;-84
2023/01/04 15:23:05;;;;;;;8.57;2.90;;;;;;;;;;4940101;29;20185;-84
2023/01/04 15:25:31;;;;;;;8.57;2.97;;;;;;;;;;4939313;29;20420;-84
2023/01/04 15:27:58;;;;;;;9.70;3.20;;;;;;;;;;4939163;29;20226;-84
2023/01/04 15:30:24;;;;;;;7.87;2.80;;;;;;;;;;4939795;29;20187;-84
2023/01/04 15:32:50;;;;;;;11.27;3.40;;;;;;;;;;4939440;29;20238;-85
2023/01/04 15:35:16;;;;;;;10.10;3.03;;;;;;;;;;4942714;29;20187;-84
2023/01/04 15:37:46;;;;;;;12.07;3.10;;;;;;;;;;4923836;29;20183;-84
2023/01/04 15:40:14;;;;;;;10.50;3.07;;;;;;;;;;4939541;29;20207;-84
2023/01/04 15:42:58;;;;;;;12.13;3.40;;;;;;;;;;4939614;29;20183;-84
2023/01/04 15:45:51;;;;;;;9.00;2.83;;;;;;;;;;4926057;29;20195;-83
2023/01/04 15:48:17;;;;;;;12.97;3.30;;;;;;;;;;4950797;28;20195;-84
2023/01/04 15:50:43;;;;;;;14.23;3.50;;;;;;;;;;4939411;29;20256;-85